Etusivu
METAR-TAF:

METAR-TAF

Lentoasemat :

Hermosillo, Meksiko

Leveyspiiri: 29-04N, Pituuspiiri: 110-57W, korkeus merenpinnasta: 211 m

Tämänhetkinen sää

Tämä raportti tehtiin 1 tunti ja 13 minuuttia sitten, kello 17.42 UTC
Tuuli 3 kn lännestä
Lämpötila 38°C
Kosteus 27%
Ilmanpaine 1008 hPa
Näkyvyys: 16.1 km
selkeää

METAR: MMHO 181742Z 28003KT 10SM SKC 38/16 A2976 RMK SLP070 57008 956 HZY

Aika: 11:55 (18:55 UTC)

Sääennuste

Tämä raportti tehtiin 1 tunti ja 39 minuuttia sitten, kello 17.16 UTC
Ennuste voimassa 18. päivästä klo 18 UTC - 19. päivään klo 18 UTC
Tuuli 10 kn etelästä/lounaasta
Näkyvyys: 10 km
selkeää
From 19. päivästä klo 0400 UTC
Tuuli 5 kn etelästä/lounaasta
Näkyvyys: 10 km
selkeää
From 19. päivästä klo 1800 UTC
Tuuli 10 kn lounaasta
Näkyvyys: 10 km
selkeää

TAF: MMHO 181716Z 1818/1918 20010KT P6SM SKC FM190400 20005KT P6SM SKC FM191800 23010KT P6SM SKC

Säähavainnot ja -ennusteet yli 4000 lentoasemalta (METAR- ja TAF-raportit).

Käytössä olevat sääasemat on merkitty karttaan keltaisilla ja punaisilla pisteillä.

Aseta hiiri pisteen päälle nähdäksesi sääaseman nimen.

Klikkaa sitten nähdäksesi säähavainnot ja -ennusteet.

Kartan vaihtaminen: klikkaa mustalla rastilla varustettuja vihreitä pisteitä, niin voit zoomata sisään; viivalla varustettua vihreää pistettä, niin voit zoomata ulos tai vihreitä nuolia, niin pääset viereisille kartoille.


METAR-TAF: